createdAt,value
2022-07-31T00:00:12.701Z,9.57
2022-07-31T00:02:39.383Z,9.23
2022-07-31T00:05:06.581Z,9.93
2022-07-31T00:07:33.443Z,8.93
2022-07-31T00:10:00.141Z,8.52
2022-07-31T00:12:26.801Z,8.75
2022-07-31T00:14:53.998Z,8.93
2022-07-31T00:17:20.785Z,9.10
2022-07-31T00:19:47.463Z,8.30
2022-07-31T00:22:14.168Z,8.38
2022-07-31T00:24:41.065Z,9.68
2022-07-31T00:27:07.996Z,8.77
2022-07-31T00:29:34.647Z,9.32
2022-07-31T00:32:01.336Z,8.70
2022-07-31T00:34:28.094Z,10.15
2022-07-31T00:36:54.974Z,10.43
2022-07-31T00:39:21.697Z,8.45
2022-07-31T00:41:49.661Z,8.90
2022-07-31T00:44:16.735Z,8.95
2022-07-31T00:46:45.461Z,8.60
2022-07-31T00:49:12.185Z,8.25
2022-07-31T00:51:40.840Z,8.45
2022-07-31T00:54:08.659Z,8.27
2022-07-31T00:56:35.519Z,8.20
2022-07-31T00:59:02.502Z,7.95
2022-07-31T01:01:30.844Z,7.53
2022-07-31T01:03:57.819Z,8.15
2022-07-31T01:06:24.562Z,7.40
2022-07-31T01:08:51.280Z,7.97
2022-07-31T01:11:57.112Z,7.75
2022-07-31T01:14:27.520Z,7.43
2022-07-31T01:16:57.991Z,6.53
2022-07-31T01:19:37.970Z,6.47
2022-07-31T01:22:39.171Z,6.38
2022-07-31T01:25:14.723Z,6.97
2022-07-31T01:27:59.301Z,7.45
2022-07-31T01:30:32.947Z,6.10
2022-07-31T01:33:06.692Z,5.00
2022-07-31T01:35:39.703Z,4.35
2022-07-31T01:38:17.595Z,3.92
2022-07-31T01:40:48.439Z,3.30
2022-07-31T01:43:19.768Z,2.90
2022-07-31T01:45:49.644Z,2.88
2022-07-31T01:48:18.423Z,1.70
2022-07-31T01:50:48.687Z,3.90
2022-07-31T01:53:20.131Z,4.93
2022-07-31T01:56:02.798Z,5.35
2022-07-31T01:58:36.184Z,7.70
2022-07-31T02:01:05.105Z,5.38
2022-07-31T02:03:44.373Z,1.90
2022-07-31T02:06:17.458Z,1.55
2022-07-31T02:08:47.044Z,1.50
2022-07-31T02:11:16.137Z,2.40
2022-07-31T02:13:44.462Z,4.15
2022-07-31T02:16:12.006Z,4.55
2022-07-31T02:18:39.184Z,4.97
2022-07-31T02:21:06.030Z,7.15
2022-07-31T02:23:33.573Z,2.65
2022-07-31T02:26:01.902Z,7.18
2022-07-31T02:28:30.814Z,2.25
2022-07-31T02:30:58.356Z,5.53
2022-07-31T02:33:26.693Z,6.40
2022-07-31T02:35:56.445Z,6.82
2022-07-31T02:40:54.352Z,1.92
2022-07-31T02:43:21.366Z,3.17
2022-07-31T02:45:48.618Z,3.22
2022-07-31T02:48:16.401Z,5.38
2022-07-31T02:50:43.156Z,8.00
2022-07-31T02:53:10.309Z,7.65
2022-07-31T02:55:37.400Z,8.98
2022-07-31T02:58:04.088Z,4.63
2022-07-31T03:00:31.025Z,1.20
2022-07-31T03:02:58.342Z,1.30
2022-07-31T03:05:25.219Z,1.10
2022-07-31T03:07:52.581Z,1.00
2022-07-31T03:10:19.508Z,1.25
2022-07-31T03:12:50.284Z,1.50
2022-07-31T03:15:19.927Z,3.47
2022-07-31T03:17:48.242Z,3.55
2022-07-31T03:20:15.980Z,3.30
2022-07-31T03:22:43.446Z,1.30
2022-07-31T03:25:11.392Z,2.60
2022-07-31T03:27:55.839Z,1.90
2022-07-31T03:30:27.548Z,5.28
2022-07-31T03:32:55.893Z,1.65
2022-07-31T03:35:25.444Z,4.10
2022-07-31T03:37:52.550Z,2.42
2022-07-31T03:40:19.427Z,2.10
2022-07-31T03:42:48.853Z,1.05
2022-07-31T03:45:17.145Z,1.10
2022-07-31T03:47:43.954Z,1.60
2022-07-31T03:50:11.674Z,0.90
2022-07-31T03:52:38.750Z,0.73
2022-07-31T03:55:06.678Z,0.90
2022-07-31T03:57:34.468Z,1.30
2022-07-31T04:00:03.287Z,0.70
2022-07-31T04:02:31.905Z,0.82
2022-07-31T04:04:59.636Z,0.80
2022-07-31T04:07:26.602Z,0.90
2022-07-31T04:09:53.517Z,1.02
2022-07-31T04:12:20.202Z,0.90
2022-07-31T04:14:46.900Z,1.00
2022-07-31T04:17:13.657Z,0.80
2022-07-31T04:19:40.307Z,0.70
2022-07-31T04:22:07.616Z,1.40
2022-07-31T04:24:34.665Z,1.30
2022-07-31T04:27:01.613Z,1.00
2022-07-31T04:29:29.621Z,0.80
2022-07-31T04:31:57.060Z,0.73
2022-07-31T04:34:23.904Z,0.68
2022-07-31T04:36:51.622Z,0.70
2022-07-31T04:39:18.463Z,0.75
2022-07-31T04:41:45.221Z,0.70
2022-07-31T04:44:11.865Z,0.70
2022-07-31T04:46:38.810Z,0.90
2022-07-31T04:49:05.579Z,0.90
2022-07-31T04:51:32.302Z,1.00
2022-07-31T04:53:58.980Z,0.90
2022-07-31T04:56:36.130Z,0.95
2022-07-31T04:59:11.196Z,1.20
2022-07-31T05:01:39.343Z,1.40
2022-07-31T05:04:06.851Z,1.70
2022-07-31T05:06:38.650Z,1.55
2022-07-31T05:09:09.471Z,1.40
2022-07-31T05:11:37.617Z,1.20
2022-07-31T05:14:06.372Z,1.42
2022-07-31T05:16:34.006Z,1.52
2022-07-31T05:19:01.263Z,1.75
2022-07-31T05:21:30.572Z,1.90
2022-07-31T05:23:59.048Z,4.43
2022-07-31T05:26:26.941Z,3.03
2022-07-31T05:28:58.408Z,5.47
2022-07-31T05:31:25.905Z,3.95
2022-07-31T05:33:52.598Z,3.30
2022-07-31T05:36:20.537Z,5.22
2022-07-31T05:38:47.696Z,7.93
2022-07-31T05:41:14.896Z,3.30
2022-07-31T05:43:41.698Z,2.50
2022-07-31T05:46:08.877Z,6.05
2022-07-31T05:48:35.622Z,2.45
2022-07-31T05:51:05.483Z,3.17
2022-07-31T05:53:32.561Z,2.30
2022-07-31T05:55:59.246Z,2.33
2022-07-31T05:58:25.933Z,1.95
2022-07-31T06:00:52.603Z,1.77
2022-07-31T06:03:24.147Z,2.33
2022-07-31T06:05:52.076Z,1.63
2022-07-31T06:08:18.930Z,1.80
2022-07-31T06:10:46.222Z,1.50
2022-07-31T06:13:13.717Z,1.80
2022-07-31T06:15:49.126Z,1.60
2022-07-31T06:18:16.438Z,1.60
2022-07-31T06:20:43.245Z,1.63
2022-07-31T06:23:14.667Z,1.70
2022-07-31T06:25:49.829Z,1.75
2022-07-31T06:28:16.750Z,1.80
2022-07-31T06:30:44.189Z,2.00
2022-07-31T06:33:21.998Z,1.60
2022-07-31T06:35:57.953Z,2.00
2022-07-31T06:38:24.905Z,1.80
2022-07-31T06:40:52.211Z,1.80
2022-07-31T06:43:18.875Z,2.40
2022-07-31T06:45:51.898Z,2.40
2022-07-31T06:48:19.179Z,2.70
2022-07-31T06:50:45.949Z,3.00
2022-07-31T06:53:13.115Z,2.45
2022-07-31T06:55:44.490Z,2.60
2022-07-31T06:58:11.667Z,2.60
2022-07-31T07:00:38.607Z,2.47
2022-07-31T07:03:05.284Z,2.83
2022-07-31T07:05:31.985Z,2.95
2022-07-31T07:07:58.649Z,2.75
2022-07-31T07:10:25.501Z,2.15
2022-07-31T07:12:52.793Z,2.45
2022-07-31T07:15:20.955Z,2.83
2022-07-31T07:17:47.657Z,2.30
2022-07-31T07:20:14.358Z,2.70
2022-07-31T07:22:41.021Z,2.78
2022-07-31T07:25:08.251Z,2.67
2022-07-31T07:27:35.204Z,2.50
2022-07-31T07:30:01.884Z,2.50
2022-07-31T07:32:28.542Z,2.10
2022-07-31T07:35:00.122Z,2.50
2022-07-31T07:37:27.722Z,3.13
2022-07-31T07:39:54.517Z,2.55
2022-07-31T07:42:21.295Z,2.92
2022-07-31T07:44:47.999Z,3.58
2022-07-31T07:47:14.638Z,4.20
2022-07-31T07:49:41.326Z,4.13
2022-07-31T07:52:08.078Z,4.03
2022-07-31T07:54:34.769Z,4.50
2022-07-31T07:57:01.472Z,4.35
2022-07-31T07:59:28.137Z,4.30
2022-07-31T08:01:55.855Z,4.40
2022-07-31T08:04:22.501Z,3.97
2022-07-31T08:06:49.275Z,3.88
2022-07-31T08:09:16.058Z,4.82
2022-07-31T08:11:42.821Z,3.83
2022-07-31T08:14:09.829Z,3.83
2022-07-31T08:16:36.556Z,3.03
2022-07-31T08:19:03.636Z,3.28
2022-07-31T08:21:30.307Z,3.10
2022-07-31T08:23:57.012Z,3.20
2022-07-31T08:26:28.049Z,3.08
2022-07-31T08:28:54.979Z,3.40
2022-07-31T08:31:23.064Z,3.67
2022-07-31T08:33:49.709Z,3.75
2022-07-31T08:36:16.405Z,4.03
2022-07-31T08:38:43.104Z,4.25
2022-07-31T08:41:09.991Z,4.68
2022-07-31T08:44:00.561Z,4.70
2022-07-31T08:46:26.583Z,4.35
2022-07-31T08:48:57.261Z,4.70
2022-07-31T08:51:25.036Z,4.53
2022-07-31T08:53:52.916Z,4.65
2022-07-31T08:56:21.315Z,4.65
2022-07-31T08:58:48.179Z,5.30
2022-07-31T09:01:15.804Z,4.80
2022-07-31T09:03:42.961Z,4.80
2022-07-31T09:06:09.661Z,4.97
2022-07-31T09:08:37.829Z,5.40
2022-07-31T09:11:09.997Z,5.03
2022-07-31T09:13:37.651Z,4.82
2022-07-31T09:16:05.282Z,4.68
2022-07-31T09:18:32.062Z,4.38
2022-07-31T09:21:06.469Z,4.00
2022-07-31T09:23:33.361Z,4.10
2022-07-31T09:26:03.273Z,3.65
2022-07-31T09:28:37.206Z,3.70
2022-07-31T09:31:05.998Z,4.05
2022-07-31T09:33:32.994Z,3.47
2022-07-31T09:36:00.131Z,3.85
2022-07-31T09:38:37.854Z,4.20
2022-07-31T09:41:53.401Z,4.47
2022-07-31T09:44:09.589Z,3.90
2022-07-31T09:46:41.488Z,4.63
2022-07-31T09:49:08.358Z,4.25
2022-07-31T09:51:43.244Z,5.20
2022-07-31T09:54:24.751Z,4.88
2022-07-31T09:56:51.651Z,5.72
2022-07-31T09:59:18.923Z,4.85
2022-07-31T10:01:49.034Z,3.85
2022-07-31T10:04:20.970Z,4.30
2022-07-31T10:06:51.410Z,4.35
2022-07-31T10:09:20.723Z,3.58
2022-07-31T10:11:50.509Z,3.85
2022-07-31T10:16:59.533Z,3.70
2022-07-31T10:19:27.745Z,2.90
2022-07-31T10:22:01.849Z,2.90
2022-07-31T10:24:33.150Z,2.40
2022-07-31T10:27:01.991Z,2.58
2022-07-31T10:29:36.782Z,2.22
2022-07-31T10:32:03.546Z,2.40
2022-07-31T10:34:30.510Z,3.50
2022-07-31T10:37:04.168Z,4.80
2022-07-31T10:39:44.097Z,7.75
2022-07-31T10:42:46.245Z,7.45
2022-07-31T10:45:14.562Z,8.40
2022-07-31T10:47:48.657Z,8.10
2022-07-31T10:50:28.172Z,8.73
2022-07-31T10:53:00.496Z,6.90
2022-07-31T10:55:30.048Z,5.90
2022-07-31T10:58:07.359Z,5.15
2022-07-31T11:00:34.276Z,3.42
2022-07-31T11:03:22.065Z,3.55
2022-07-31T11:06:00.828Z,2.88
2022-07-31T11:08:40.863Z,2.80
2022-07-31T11:11:07.507Z,2.95
2022-07-31T11:13:45.743Z,3.40
2022-07-31T11:16:12.504Z,3.05
2022-07-31T11:18:39.277Z,5.22
2022-07-31T11:21:36.052Z,3.95
2022-07-31T11:24:02.716Z,4.28
2022-07-31T11:26:32.788Z,5.15
2022-07-31T11:30:01.031Z,5.10
2022-07-31T11:31:55.907Z,5.55
2022-07-31T11:34:22.613Z,6.18
2022-07-31T11:36:51.635Z,6.32
2022-07-31T11:39:19.719Z,6.90
2022-07-31T11:41:55.173Z,7.97
2022-07-31T11:44:22.054Z,10.60
2022-07-31T11:46:50.388Z,11.18
2022-07-31T11:49:38.904Z,7.38
2022-07-31T11:52:30.859Z,5.57
2022-07-31T11:55:09.021Z,4.50
2022-07-31T11:57:51.352Z,6.60
2022-07-31T12:00:26.836Z,8.50
2022-07-31T12:02:56.323Z,8.70
2022-07-31T12:05:39.130Z,8.43
2022-07-31T12:08:07.991Z,9.20
2022-07-31T12:10:35.206Z,7.88
2022-07-31T12:13:02.953Z,9.75
2022-07-31T12:15:29.685Z,8.40
2022-07-31T12:18:03.054Z,8.75
2022-07-31T12:20:35.780Z,8.57
2022-07-31T12:23:06.266Z,7.63
2022-07-31T12:25:45.839Z,7.90
2022-07-31T12:28:16.127Z,6.57
2022-07-31T12:30:46.283Z,10.05
2022-07-31T12:33:14.935Z,8.20
2022-07-31T12:35:56.268Z,6.75
2022-07-31T12:38:47.546Z,7.57
2022-07-31T12:41:15.013Z,7.57
2022-07-31T12:43:50.183Z,7.80
2022-07-31T12:46:21.245Z,7.63
2022-07-31T12:48:49.322Z,8.00
2022-07-31T12:51:18.762Z,9.90
2022-07-31T12:53:46.838Z,8.95
2022-07-31T12:56:14.169Z,11.52
2022-07-31T12:58:40.847Z,8.10
2022-07-31T13:01:07.699Z,8.00
2022-07-31T13:03:46.092Z,7.50
2022-07-31T13:06:14.104Z,7.40
2022-07-31T13:08:41.089Z,6.72
2022-07-31T13:11:07.935Z,9.40
2022-07-31T13:13:34.594Z,7.40
2022-07-31T13:16:01.481Z,5.97
2022-07-31T13:18:30.131Z,7.05
2022-07-31T13:20:56.877Z,6.20
2022-07-31T13:23:23.754Z,5.50
2022-07-31T13:25:50.423Z,4.72
2022-07-31T13:28:17.158Z,4.60
2022-07-31T13:30:44.005Z,4.47
2022-07-31T13:33:12.070Z,4.97
2022-07-31T13:35:38.801Z,4.80
2022-07-31T13:38:05.602Z,4.50
2022-07-31T13:40:51.287Z,4.35
2022-07-31T13:43:18.331Z,4.32
2022-07-31T13:45:45.106Z,4.40
2022-07-31T13:48:11.809Z,4.53
2022-07-31T13:50:42.404Z,5.00
2022-07-31T13:53:09.666Z,4.93
2022-07-31T13:55:37.429Z,5.43
2022-07-31T13:58:05.417Z,5.32
2022-07-31T14:00:32.355Z,5.10
2022-07-31T14:02:59.235Z,5.25
2022-07-31T14:05:27.614Z,4.57
2022-07-31T14:08:29.935Z,4.68
2022-07-31T14:10:50.016Z,4.78
2022-07-31T14:13:17.791Z,4.40
2022-07-31T14:15:44.909Z,4.38
2022-07-31T14:18:11.610Z,4.70
2022-07-31T14:20:39.151Z,3.72
2022-07-31T14:23:08.965Z,4.35
2022-07-31T14:25:37.370Z,5.03
2022-07-31T14:28:04.925Z,4.18
2022-07-31T14:30:34.447Z,4.85
2022-07-31T14:35:30.673Z,5.10
2022-07-31T14:37:59.954Z,5.03
2022-07-31T14:40:30.959Z,5.75
2022-07-31T14:42:58.668Z,5.88
2022-07-31T14:45:26.954Z,6.70
2022-07-31T14:47:55.204Z,7.18
2022-07-31T14:50:22.638Z,8.43
2022-07-31T14:52:49.342Z,8.18
2022-07-31T14:55:18.337Z,7.65
2022-07-31T14:57:45.526Z,8.05
2022-07-31T15:00:13.408Z,8.43
2022-07-31T15:02:50.098Z,9.27
2022-07-31T15:06:48.835Z,8.27
2022-07-31T15:08:07.368Z,7.57
2022-07-31T15:13:05.064Z,6.30
2022-07-31T15:15:33.764Z,6.25
2022-07-31T15:18:01.309Z,5.65
2022-07-31T15:20:28.830Z,5.50
2022-07-31T15:23:00.180Z,4.20
2022-07-31T15:25:26.942Z,4.43
2022-07-31T15:27:53.623Z,4.60
2022-07-31T15:30:21.465Z,3.90
2022-07-31T15:32:48.281Z,4.22
2022-07-31T15:35:14.944Z,5.13
2022-07-31T15:37:44.298Z,7.22
2022-07-31T15:40:14.648Z,3.97
2022-07-31T15:42:43.757Z,4.18
2022-07-31T15:45:15.659Z,3.83
2022-07-31T15:47:43.351Z,3.75
2022-07-31T15:50:13.135Z,3.78
2022-07-31T15:52:40.131Z,4.03
2022-07-31T15:55:07.944Z,3.38
2022-07-31T15:57:34.724Z,4.00
2022-07-31T16:00:02.062Z,3.78
2022-07-31T16:02:28.813Z,3.88
2022-07-31T16:04:59.701Z,3.40
2022-07-31T16:08:28.601Z,4.00
2022-07-31T16:10:24.384Z,8.23
2022-07-31T16:12:51.084Z,3.83
2022-07-31T16:15:17.773Z,3.95
2022-07-31T16:17:45.018Z,3.75
2022-07-31T16:20:20.701Z,4.28
2022-07-31T16:22:56.691Z,3.70
2022-07-31T16:25:24.651Z,4.38
2022-07-31T16:27:51.681Z,3.70
2022-07-31T16:30:18.380Z,3.80
2022-07-31T16:32:45.244Z,4.25
2022-07-31T16:35:12.729Z,5.03
2022-07-31T16:37:51.974Z,4.10
2022-07-31T16:40:30.028Z,4.28
2022-07-31T16:43:50.840Z,6.03
2022-07-31T16:45:50.392Z,4.70
2022-07-31T16:48:17.657Z,5.82
2022-07-31T16:50:44.510Z,7.70
2022-07-31T16:53:13.505Z,7.72
2022-07-31T16:56:01.506Z,7.57
2022-07-31T16:58:28.994Z,7.80
2022-07-31T17:00:55.845Z,7.28
2022-07-31T17:03:58.559Z,7.40
2022-07-31T17:06:10.563Z,7.45
2022-07-31T17:08:38.448Z,6.60
2022-07-31T17:11:05.563Z,6.38
2022-07-31T17:13:32.580Z,7.63
2022-07-31T17:15:59.940Z,7.10
2022-07-31T17:18:26.765Z,7.80
2022-07-31T17:20:55.773Z,8.98
2022-07-31T17:26:10.299Z,6.07
2022-07-31T17:28:48.599Z,27.02
2022-07-31T17:31:15.323Z,5.38
2022-07-31T17:33:59.627Z,7.97
2022-07-31T17:36:28.584Z,5.72
2022-07-31T17:38:56.409Z,10.00
2022-07-31T17:41:24.778Z,7.13
2022-07-31T17:43:54.737Z,7.65
2022-07-31T17:46:34.273Z,6.90
2022-07-31T17:49:08.383Z,4.90
2022-07-31T17:51:35.467Z,3.78
2022-07-31T17:54:02.334Z,3.50
2022-07-31T17:56:29.201Z,3.63
2022-07-31T17:59:03.737Z,3.13
2022-07-31T18:01:30.748Z,5.03
2022-07-31T18:03:57.476Z,30.80
2022-07-31T18:06:24.200Z,8.32
2022-07-31T18:08:51.766Z,13.82
2022-07-31T18:11:18.935Z,4.32
2022-07-31T18:13:48.737Z,5.30
2022-07-31T18:16:19.023Z,9.38
2022-07-31T18:18:45.841Z,7.30
2022-07-31T18:21:13.485Z,4.93
2022-07-31T18:23:43.498Z,6.47
2022-07-31T18:26:14.201Z,3.47
2022-07-31T18:28:40.939Z,4.20
2022-07-31T18:31:12.853Z,3.95
2022-07-31T18:33:54.326Z,3.78
2022-07-31T18:36:21.348Z,4.93
2022-07-31T18:38:49.863Z,5.35
2022-07-31T18:41:16.598Z,5.88
2022-07-31T18:43:43.632Z,4.78
2022-07-31T18:46:11.484Z,6.03
2022-07-31T18:48:57.069Z,5.75
2022-07-31T18:51:28.480Z,6.15
2022-07-31T18:53:55.523Z,4.40
2022-07-31T18:56:24.402Z,3.55
2022-07-31T18:58:52.159Z,10.20
2022-07-31T19:01:19.442Z,5.03
2022-07-31T19:03:46.760Z,7.95
2022-07-31T19:06:13.634Z,3.88
2022-07-31T19:08:40.485Z,4.35
2022-07-31T19:11:07.206Z,4.30
2022-07-31T19:13:34.005Z,3.45
2022-07-31T19:16:00.988Z,3.58
2022-07-31T19:18:28.601Z,3.10
2022-07-31T19:21:21.261Z,3.03
2022-07-31T19:26:12.067Z,3.47
2022-07-31T19:28:39.998Z,3.40
2022-07-31T19:31:07.430Z,3.10
2022-07-31T19:33:34.237Z,2.83
2022-07-31T19:36:02.891Z,3.25
2022-07-31T19:38:36.099Z,4.07
2022-07-31T19:41:04.283Z,3.30
2022-07-31T19:43:31.485Z,4.00
2022-07-31T19:46:09.537Z,3.80
2022-07-31T19:48:39.728Z,3.70
2022-07-31T19:51:06.751Z,3.80
2022-07-31T19:53:33.419Z,3.85
2022-07-31T19:56:02.054Z,5.20
2022-07-31T19:58:28.690Z,5.97
2022-07-31T20:00:55.367Z,6.88
2022-07-31T20:03:22.205Z,8.63
2022-07-31T20:05:49.116Z,10.00
2022-07-31T20:08:15.836Z,9.18
2022-07-31T20:10:42.493Z,8.13
2022-07-31T20:13:09.195Z,7.43
2022-07-31T20:15:52.099Z,6.40
2022-07-31T20:18:28.506Z,5.32
2022-07-31T20:21:00.898Z,6.40
2022-07-31T20:23:28.707Z,5.60
2022-07-31T20:25:55.513Z,5.30
2022-07-31T20:28:22.631Z,6.18
2022-07-31T20:30:49.733Z,5.78
2022-07-31T20:33:16.391Z,6.53
2022-07-31T20:35:48.671Z,5.43
2022-07-31T20:38:18.060Z,4.40
2022-07-31T20:40:53.001Z,5.30
2022-07-31T20:43:21.602Z,5.18
2022-07-31T20:45:48.641Z,5.13
2022-07-31T20:48:18.958Z,4.53
2022-07-31T20:50:48.189Z,5.10
2022-07-31T20:53:19.617Z,5.40
2022-07-31T20:55:49.371Z,5.93
2022-07-31T20:58:18.114Z,5.72
2022-07-31T21:00:45.523Z,6.57
2022-07-31T21:03:12.302Z,7.65
2022-07-31T21:05:40.142Z,5.88
2022-07-31T21:08:06.905Z,5.55
2022-07-31T21:10:34.187Z,4.72
2022-07-31T21:13:00.913Z,5.00
2022-07-31T21:15:41.729Z,3.95
2022-07-31T21:18:15.711Z,4.47
2022-07-31T21:20:51.677Z,4.57
2022-07-31T21:23:22.543Z,5.35
2022-07-31T21:25:50.067Z,4.72
2022-07-31T21:28:17.234Z,4.63
2022-07-31T21:30:44.025Z,5.45
2022-07-31T21:33:10.888Z,5.18
2022-07-31T21:35:40.054Z,4.88
2022-07-31T21:38:12.115Z,5.07
2022-07-31T21:40:39.987Z,5.13
2022-07-31T21:43:07.043Z,5.05
2022-07-31T21:45:49.604Z,4.85
2022-07-31T21:48:25.082Z,5.30
2022-07-31T21:50:52.509Z,5.50
2022-07-31T21:53:19.173Z,5.72
2022-07-31T21:55:45.881Z,5.60
2022-07-31T21:58:12.526Z,5.18
2022-07-31T22:00:39.501Z,4.75
2022-07-31T22:03:06.895Z,5.97
2022-07-31T22:05:52.846Z,6.03
2022-07-31T22:08:20.300Z,5.82
2022-07-31T22:10:49.753Z,6.07
2022-07-31T22:13:16.445Z,6.00
2022-07-31T22:15:55.362Z,6.25
2022-07-31T22:18:30.218Z,6.72
2022-07-31T22:20:58.376Z,6.60
2022-07-31T22:23:27.123Z,6.15
2022-07-31T22:25:54.098Z,7.18
2022-07-31T22:28:22.970Z,6.47
2022-07-31T22:30:50.956Z,6.97
2022-07-31T22:33:17.757Z,7.20
2022-07-31T22:35:44.593Z,6.75
2022-07-31T22:38:11.785Z,6.30
2022-07-31T22:40:38.775Z,6.15
2022-07-31T22:43:47.299Z,6.38
2022-07-31T22:45:54.071Z,5.78
2022-07-31T22:48:24.383Z,6.28
2022-07-31T22:50:51.646Z,6.63
2022-07-31T22:53:18.312Z,6.32
2022-07-31T22:55:45.110Z,6.90
2022-07-31T22:58:15.089Z,5.88
2022-07-31T23:00:43.085Z,6.45
2022-07-31T23:03:09.888Z,6.93
2022-07-31T23:06:03.491Z,7.00
2022-07-31T23:08:23.441Z,6.90
2022-07-31T23:10:50.098Z,7.07
2022-07-31T23:13:16.779Z,6.55
2022-07-31T23:15:44.817Z,6.38
2022-07-31T23:18:12.042Z,6.70
2022-07-31T23:20:39.055Z,6.25
2022-07-31T23:23:06.214Z,7.13
2022-07-31T23:25:33.154Z,7.70
2022-07-31T23:27:59.837Z,7.25
2022-07-31T23:30:27.594Z,8.45
2022-07-31T23:32:55.466Z,7.82
2022-07-31T23:35:22.265Z,6.95
2022-07-31T23:37:49.046Z,6.72
2022-07-31T23:40:15.825Z,6.35
2022-07-31T23:42:42.472Z,6.90
2022-07-31T23:45:12.143Z,6.78
2022-07-31T23:47:46.047Z,6.90
2022-07-31T23:50:13.801Z,6.53
2022-07-31T23:52:40.782Z,6.60
2022-07-31T23:55:07.965Z,7.07
2022-07-31T23:57:36.196Z,7.57
